Time;durP1;ratioP1;P1;durP2;ratioP2;P2;SDS_P1;SDS_P2;PMS_P1;PMS_P2;Temp;Humidity;BMP_temperature;BMP_pressure;BME280_temperature;BME280_humidity;BME280_pressure;Samples;Min_cycle;Max_cycle;Signal;HPM_P1;HPM_P2
2023/08/08 00:02:18;;;;;;;28.38;25.60;;;18.90;66.60;;;;;;4967036;28;20045;-65
2023/08/08 00:04:43;;;;;;;27.52;24.75;;;18.90;99.90;;;;;;4966522;28;20038;-65
2023/08/08 00:07:10;;;;;;;24.48;22.25;;;19.00;99.90;;;;;;4966775;28;20039;-66
2023/08/08 00:09:35;;;;;;;27.30;24.38;;;19.00;14.20;;;;;;4969431;28;20042;-65
2023/08/08 00:12:01;;;;;;;24.27;22.13;;;19.20;1.00;;;;;;4971871;28;20043;-65
2023/08/08 00:14:26;;;;;;;25.35;23.15;;;18.90;1.00;;;;;;4974200;28;20037;-65
2023/08/08 00:16:52;;;;;;;28.73;25.80;;;18.90;1.00;;;;;;4967587;28;20414;-65
2023/08/08 00:19:17;;;;;;;26.27;23.70;;;18.80;1.00;;;;;;4970390;28;20047;-65
2023/08/08 00:21:43;;;;;;;28.27;25.58;;;18.90;17.30;;;;;;4963658;28;20066;-65
2023/08/08 00:24:09;;;;;;;24.77;22.27;;;18.90;62.90;;;;;;4967263;28;20106;-65
2023/08/08 00:26:34;;;;;;;26.45;23.77;;;18.80;39.70;;;;;;4969593;28;20045;-65
2023/08/08 00:29:00;;;;;;;27.55;24.95;;;18.90;39.60;;;;;;4966809;28;20575;-65
2023/08/08 00:31:25;;;;;;;27.10;24.23;;;19.20;51.40;;;;;;4969776;28;20046;-65
2023/08/08 00:33:51;;;;;;;28.02;25.17;;;18.90;60.60;;;;;;4970252;28;20038;-65
2023/08/08 00:36:16;;;;;;;27.05;24.55;;;18.90;84.20;;;;;;4964928;28;20050;-65
2023/08/08 00:38:42;;;;;;;25.75;23.40;;;19.00;88.10;;;;;;4966593;28;20102;-65
2023/08/08 00:41:08;;;;;;;24.48;22.17;;;19.00;91.70;;;;;;4969958;28;20050;-65
2023/08/08 00:43:33;;;;;;;25.08;22.60;;;18.90;1.00;;;;;;4971257;28;20400;-62
2023/08/08 00:45:59;;;;;;;25.48;22.80;;;19.00;1.00;;;;;;4968117;28;20045;-63
2023/08/08 00:48:25;;;;;;;24.58;22.13;;;18.90;1.00;;;;;;4966004;28;20049;-63
2023/08/08 00:50:51;;;;;;;24.13;21.83;;;19.00;1.00;;;;;;4969719;28;20043;-63
2023/08/08 00:53:19;;;;;;;26.73;23.90;;;18.90;1.00;;;;;;4967365;28;20047;-64
2023/08/08 00:55:45;;;;;;;24.38;22.02;;;18.90;1.00;;;;;;4967904;28;20050;-63
2023/08/08 00:58:12;;;;;;;24.13;21.83;;;18.90;99.90;;;;;;4970378;28;20047;-63
2023/08/08 01:00:37;;;;;;;23.55;21.55;;;18.90;99.90;;;;;;4969015;28;20110;-63
2023/08/08 01:03:03;;;;;;;25.05;22.52;;;18.80;99.90;;;;;;4970013;28;20035;-63
2023/08/08 01:05:37;;;;;;;25.65;23.35;;;18.80;99.90;;;;;;4966907;28;20035;-63
2023/08/08 01:08:07;;;;;;;23.20;20.63;;;18.90;99.90;;;;;;4967678;28;20485;-64
2023/08/08 01:10:40;;;;;;;20.60;18.90;;;18.90;99.90;;;;;;4967834;28;20043;-63
2023/08/08 01:13:11;;;;;;;23.20;21.13;;;18.80;99.90;;;;;;4968406;28;20069;-63
2023/08/08 01:15:37;;;;;;;24.77;22.52;;;18.90;99.90;;;;;;4967270;28;20117;-63
2023/08/08 01:18:09;;;;;;;24.88;22.52;;;18.80;99.90;;;;;;4971436;28;20053;-63
2023/08/08 01:20:35;;;;;;;25.58;23.00;;;18.80;99.90;;;;;;4973099;28;20169;-63
2023/08/08 01:23:18;;;;;;;25.95;23.45;;;18.80;99.90;;;;;;4973750;28;20119;-64
2023/08/08 01:25:45;;;;;;;25.38;22.77;;;18.80;99.90;;;;;;4956646;28;20421;-63
2023/08/08 01:28:11;;;;;;;23.60;21.50;;;18.80;99.90;;;;;;4971823;28;20042;-63
2023/08/08 01:30:37;;;;;;;23.50;21.40;;;18.80;99.90;;;;;;4972396;28;20430;-63
2023/08/08 01:33:04;;;;;;;23.92;21.63;;;18.70;99.90;;;;;;4973901;28;20368;-63
2023/08/08 01:35:34;;;;;;;24.35;22.33;;;18.80;99.90;;;;;;4973415;28;20585;-63
2023/08/08 01:38:19;;;;;;;23.17;21.00;;;18.70;99.90;;;;;;4972370;28;20057;-63
2023/08/08 01:40:45;;;;;;;23.30;21.23;;;18.70;99.90;;;;;;4954207;28;20114;-63
2023/08/08 01:43:13;;;;;;;21.63;19.60;;;18.70;99.90;;;;;;4954418;29;20070;-63
2023/08/08 01:45:39;;;;;;;21.45;19.45;;;18.70;99.90;;;;;;4953164;29;20525;-63
2023/08/08 01:48:09;;;;;;;23.42;21.33;;;18.80;99.90;;;;;;4968005;28;20186;-63
2023/08/08 01:50:35;;;;;;;22.83;20.80;;;18.90;99.90;;;;;;4955530;28;20513;-63
2023/08/08 01:53:00;;;;;;;22.85;20.55;;;18.80;99.90;;;;;;4983915;28;20049;-63
2023/08/08 01:55:26;;;;;;;23.55;21.45;;;18.90;99.90;;;;;;4988393;28;20125;-65
2023/08/08 01:57:52;;;;;;;21.50;19.52;;;18.70;99.90;;;;;;4969767;28;20043;-65
2023/08/08 02:00:17;;;;;;;23.33;21.00;;;18.70;99.90;;;;;;4953998;28;20047;-64
2023/08/08 02:02:43;;;;;;;22.88;20.75;;;18.70;99.90;;;;;;4967421;28;20551;-65
2023/08/08 02:05:09;;;;;;;22.15;20.13;;;18.70;99.90;;;;;;4973098;28;20038;-65
2023/08/08 02:07:34;;;;;;;21.17;19.17;;;18.80;99.90;;;;;;4971845;28;20035;-64
2023/08/08 02:10:00;;;;;;;21.58;19.77;;;18.70;99.90;;;;;;4973323;28;20148;-65
2023/08/08 02:12:25;;;;;;;22.58;20.63;;;18.80;99.90;;;;;;4973565;28;20039;-64
2023/08/08 02:14:51;;;;;;;25.67;23.27;;;18.70;99.90;;;;;;4973207;28;20066;-64
2023/08/08 02:17:16;;;;;;;23.83;21.60;;;18.80;99.90;;;;;;4972423;28;20042;-64
2023/08/08 02:19:42;;;;;;;24.20;21.90;;;18.70;99.90;;;;;;4968450;28;20094;-64
2023/08/08 02:22:08;;;;;;;24.27;22.27;;;18.60;99.90;;;;;;4971938;28;20050;-64
2023/08/08 02:24:33;;;;;;;22.17;20.15;;;18.60;99.90;;;;;;4972790;28;20039;-64
2023/08/08 02:26:59;;;;;;;24.65;22.65;;;18.60;99.90;;;;;;4972154;28;20046;-65
2023/08/08 02:29:24;;;;;;;24.48;22.30;;;18.70;99.90;;;;;;4957156;28;20042;-64
2023/08/08 02:31:50;;;;;;;23.48;21.15;;;18.60;99.90;;;;;;4953566;29;20383;-65
2023/08/08 02:34:15;;;;;;;22.80;20.77;;;18.70;99.90;;;;;;4953204;29;20427;-64
2023/08/08 02:36:41;;;;;;;23.63;21.52;;;18.70;99.90;;;;;;4969322;28;20106;-64
2023/08/08 02:39:07;;;;;;;24.85;22.50;;;18.70;99.90;;;;;;4972196;28;20105;-65
2023/08/08 02:41:32;;;;;;;26.48;23.98;;;18.60;99.90;;;;;;4970918;28;20047;-64
2023/08/08 02:43:58;;;;;;;26.23;23.52;;;18.60;99.90;;;;;;4972538;28;20089;-64
2023/08/08 02:46:23;;;;;;;24.33;22.20;;;18.50;99.90;;;;;;4971667;28;20035;-64
2023/08/08 02:48:49;;;;;;;26.65;24.23;;;18.60;99.90;;;;;;4954114;28;20062;-65
2023/08/08 02:51:14;;;;;;;23.05;20.75;;;18.50;99.90;;;;;;4959588;28;20046;-64
2023/08/08 02:53:40;;;;;;;21.85;19.95;;;18.50;99.90;;;;;;4972196;28;20050;-64
2023/08/08 02:56:05;;;;;;;24.75;22.60;;;18.50;99.90;;;;;;4970684;28;20047;-64
2023/08/08 02:58:31;;;;;;;23.13;20.58;;;18.50;99.90;;;;;;4970970;28;20066;-65
2023/08/08 03:00:57;;;;;;;22.25;20.15;;;18.50;99.90;;;;;;4971518;28;20420;-64
2023/08/08 03:03:23;;;;;;;24.15;22.02;;;18.60;99.90;;;;;;4968793;28;20034;-64
2023/08/08 03:05:49;;;;;;;24.65;22.38;;;18.50;99.90;;;;;;4968910;28;20035;-63
2023/08/08 03:08:15;;;;;;;23.45;21.27;;;18.50;99.90;;;;;;4971114;28;20105;-62
2023/08/08 03:10:40;;;;;;;22.70;20.45;;;18.50;99.90;;;;;;4972015;28;20412;-62
2023/08/08 03:13:06;;;;;;;23.45;21.35;;;18.50;99.90;;;;;;4972220;28;20425;-62
2023/08/08 03:15:32;;;;;;;24.50;22.42;;;18.50;99.90;;;;;;4971700;28;20046;-62
2023/08/08 03:17:58;;;;;;;21.05;18.90;;;18.60;99.90;;;;;;4970477;28;20054;-62
2023/08/08 03:20:23;;;;;;;19.60;17.88;;;18.60;99.90;;;;;;4971157;28;20046;-62
2023/08/08 03:22:49;;;;;;;20.65;18.88;;;18.60;94.50;;;;;;4971466;28;20389;-61
2023/08/08 03:25:14;;;;;;;23.20;21.15;;;18.80;85.50;;;;;;4967278;28;20498;-61
2023/08/08 03:27:40;;;;;;;25.35;22.70;;;18.40;97.80;;;;;;4975506;28;20038;-62
2023/08/08 03:30:06;;;;;;;25.67;23.27;;;18.30;99.90;;;;;;4971605;28;20121;-61
2023/08/08 03:32:32;;;;;;;25.02;22.92;;;18.30;99.90;;;;;;4971686;28;20046;-62
2023/08/08 03:34:57;;;;;;;26.50;24.02;;;18.30;99.90;;;;;;4969763;28;20047;-62
2023/08/08 03:37:23;;;;;;;27.45;24.75;;;18.10;99.90;;;;;;4967235;28;20222;-60
2023/08/08 03:39:49;;;;;;;26.15;23.33;;;18.10;99.90;;;;;;4971081;28;20053;-62
2023/08/08 03:42:14;;;;;;;25.50;22.98;;;18.10;99.90;;;;;;4971466;28;20174;-61
2023/08/08 03:44:40;;;;;;;24.40;22.33;;;18.10;99.90;;;;;;4971471;28;20090;-61
2023/08/08 03:47:07;;;;;;;23.23;21.20;;;18.20;99.90;;;;;;4968384;28;20051;-62
2023/08/08 03:49:32;;;;;;;23.95;21.75;;;18.40;99.90;;;;;;4971269;28;20434;-62
2023/08/08 03:51:58;;;;;;;22.92;20.83;;;18.20;99.90;;;;;;4970413;28;20037;-61
2023/08/08 03:54:24;;;;;;;23.95;21.90;;;18.20;99.90;;;;;;4986259;28;20140;-61
2023/08/08 03:56:49;;;;;;;24.75;22.48;;;18.20;99.90;;;;;;4965177;28;20045;-62
2023/08/08 03:59:15;;;;;;;25.75;23.42;;;18.30;99.90;;;;;;4971146;28;20043;-61
2023/08/08 04:01:40;;;;;;;24.90;22.60;;;18.40;99.90;;;;;;4971287;28;20078;-62
2023/08/08 04:04:06;;;;;;;26.73;24.13;;;18.40;99.90;;;;;;4971152;28;20066;-61
2023/08/08 04:06:32;;;;;;;25.40;22.80;;;18.30;99.90;;;;;;4963277;28;20297;-61
2023/08/08 04:08:57;;;;;;;27.10;24.30;;;18.30;99.90;;;;;;4970803;28;20465;-61
2023/08/08 04:11:23;;;;;;;26.27;23.58;;;18.30;99.90;;;;;;4971398;28;20043;-62
2023/08/08 04:13:48;;;;;;;27.48;24.90;;;18.20;99.90;;;;;;4971213;28;20460;-62
2023/08/08 04:16:14;;;;;;;30.52;27.42;;;18.20;99.90;;;;;;4971409;28;20082;-62
2023/08/08 04:18:40;;;;;;;28.92;26.23;;;18.10;99.90;;;;;;4971315;28;20073;-61
2023/08/08 04:21:05;;;;;;;28.67;26.25;;;18.10;99.90;;;;;;4969828;28;20047;-62
2023/08/08 04:23:31;;;;;;;30.67;27.42;;;18.10;99.90;;;;;;4971265;28;20038;-61
2023/08/08 04:25:56;;;;;;;31.73;28.45;;;18.10;99.90;;;;;;4970635;28;20023;-60
2023/08/08 04:28:22;;;;;;;30.88;27.83;;;18.00;99.90;;;;;;4971427;28;20050;-61
2023/08/08 04:30:47;;;;;;;30.55;27.27;;;18.20;99.90;;;;;;4971293;28;20051;-62
2023/08/08 04:33:13;;;;;;;30.75;27.58;;;18.00;99.90;;;;;;4971098;28;20043;-61
2023/08/08 04:35:38;;;;;;;29.50;26.63;;;18.00;99.90;;;;;;4970491;28;20431;-62
2023/08/08 04:38:04;;;;;;;30.75;27.63;;;18.00;1.00;;;;;;4965639;28;20193;-62
2023/08/08 04:40:30;;;;;;;30.98;27.63;;;18.10;1.00;;;;;;4970738;28;20088;-62
2023/08/08 04:42:55;;;;;;;29.85;26.98;;;18.20;1.00;;;;;;4971318;28;20038;-61
2023/08/08 04:45:21;;;;;;;30.35;27.35;;;18.10;1.00;;;;;;4959186;28;20502;-63
2023/08/08 04:47:47;;;;;;;31.20;28.17;;;18.10;1.00;;;;;;4970503;28;20113;-62
2023/08/08 04:50:12;;;;;;;29.67;26.63;;;18.00;1.00;;;;;;4970940;28;20038;-61
2023/08/08 04:52:38;;;;;;;27.02;24.48;;;18.10;1.00;;;;;;4973217;28;20050;-62
2023/08/08 04:55:04;;;;;;;30.08;27.25;;;18.10;1.00;;;;;;4972450;28;20046;-61
2023/08/08 04:57:29;;;;;;;29.98;27.08;;;18.10;1.00;;;;;;4973174;28;20054;-62
2023/08/08 04:59:55;;;;;;;30.17;26.98;;;18.10;1.00;;;;;;4971751;28;20047;-61
2023/08/08 05:02:21;;;;;;;29.83;26.70;;;18.10;1.00;;;;;;4972224;28;20140;-61
2023/08/08 05:04:46;;;;;;;28.73;25.88;;;18.20;1.00;;;;;;4970096;28;20035;-61
2023/08/08 05:07:12;;;;;;;29.95;27.02;;;18.20;1.00;;;;;;4971007;28;20042;-62
2023/08/08 05:09:37;;;;;;;28.20;25.38;;;18.10;1.00;;;;;;4972776;28;20456;-61
2023/08/08 05:12:04;;;;;;;28.67;26.00;;;18.10;1.00;;;;;;4972065;28;20125;-62
2023/08/08 05:14:29;;;;;;;28.88;26.00;;;18.10;1.00;;;;;;4972651;28;20147;-61
2023/08/08 05:16:55;;;;;;;28.83;26.00;;;18.20;1.00;;;;;;4973330;28;20099;-62
2023/08/08 05:19:20;;;;;;;26.95;24.35;;;18.20;1.00;;;;;;4972471;28;20070;-60
2023/08/08 05:21:46;;;;;;;27.85;24.52;;;18.20;1.00;;;;;;4973441;28;20050;-61
2023/08/08 05:24:11;;;;;;;27.58;24.85;;;18.20;1.00;;;;;;4970918;28;20047;-65
2023/08/08 05:26:37;;;;;;;28.05;25.15;;;18.20;1.00;;;;;;4971793;28;20477;-64
2023/08/08 05:29:02;;;;;;;27.85;25.02;;;18.30;1.00;;;;;;4968597;28;20101;-64
2023/08/08 05:31:28;;;;;;;26.80;24.20;;;18.30;1.00;;;;;;4971921;28;20051;-65
2023/08/08 05:33:54;;;;;;;27.27;24.58;;;18.30;1.00;;;;;;4970995;28;20037;-65
2023/08/08 05:36:19;;;;;;;28.67;25.73;;;18.40;99.90;;;;;;4969427;28;20138;-65
2023/08/08 05:38:45;;;;;;;30.13;27.13;;;18.70;1.00;;;;;;4970777;28;20050;-65
2023/08/08 05:41:10;;;;;;;29.38;26.27;;;18.40;1.00;;;;;;4973515;28;20053;-65
2023/08/08 05:43:36;;;;;;;29.27;26.15;;;18.40;1.00;;;;;;4972246;28;20409;-64
2023/08/08 05:46:02;;;;;;;31.60;28.35;;;18.50;1.00;;;;;;4970398;28;20054;-65
2023/08/08 05:48:27;;;;;;;30.67;27.27;;;19.20;1.00;;;;;;4967561;28;20049;-65
2023/08/08 05:50:53;;;;;;;26.48;24.00;;;18.60;1.00;;;;;;4967841;28;20043;-65
2023/08/08 05:53:19;;;;;;;28.58;25.75;;;18.60;1.00;;;;;;4970561;28;20061;-65
2023/08/08 05:55:44;;;;;;;28.13;25.52;;;18.60;1.00;;;;;;4970547;28;20031;-65
2023/08/08 05:58:10;;;;;;;30.13;27.02;;;18.60;1.00;;;;;;4972586;28;20031;-65
2023/08/08 06:00:36;;;;;;;30.63;27.73;;;18.60;1.00;;;;;;4971463;28;20074;-67
2023/08/08 06:03:01;;;;;;;29.67;26.77;;;18.60;1.00;;;;;;4969976;28;20126;-65
2023/08/08 06:05:28;;;;;;;28.80;26.05;;;18.60;1.00;;;;;;4970699;28;20437;-65
2023/08/08 06:07:55;;;;;;;29.27;26.27;;;18.70;1.00;;;;;;4955917;28;20074;-65
2023/08/08 06:10:21;;;;;;;27.15;24.65;;;18.70;1.00;;;;;;4953977;29;20102;-66
2023/08/08 06:12:46;;;;;;;31.75;27.80;;;18.80;1.00;;;;;;4953843;29;20039;-65
2023/08/08 06:15:12;;;;;;;28.77;25.60;;;18.70;1.00;;;;;;4963469;28;20045;-64
2023/08/08 06:17:38;;;;;;;29.45;26.58;;;18.70;1.00;;;;;;4959850;28;20101;-64
2023/08/08 06:20:04;;;;;;;28.95;26.02;;;18.80;1.00;;;;;;4957786;28;20047;-64
2023/08/08 06:22:30;;;;;;;28.30;25.52;;;18.90;1.00;;;;;;4957416;28;20081;-64
2023/08/08 06:24:56;;;;;;;29.52;26.52;;;18.90;1.00;;;;;;4962898;28;20071;-65
2023/08/08 06:27:21;;;;;;;27.25;23.95;;;19.10;1.00;;;;;;4958482;28;20042;-64
2023/08/08 06:29:47;;;;;;;29.88;26.77;;;19.20;1.00;;;;;;4967049;28;20057;-65
2023/08/08 06:32:12;;;;;;;29.15;26.00;;;19.30;1.00;;;;;;4968172;28;20049;-65
2023/08/08 06:34:38;;;;;;;30.02;26.73;;;19.30;1.00;;;;;;4964831;28;20129;-64
2023/08/08 06:37:03;;;;;;;29.67;26.58;;;19.20;1.00;;;;;;4964733;28;20043;-64
2023/08/08 06:39:29;;;;;;;29.08;26.05;;;19.10;1.00;;;;;;4967531;28;20122;-65
2023/08/08 06:41:55;;;;;;;28.88;25.95;;;19.10;1.00;;;;;;4968158;28;20054;-65
2023/08/08 06:44:21;;;;;;;29.30;26.27;;;19.10;1.00;;;;;;4965184;28;20046;-65
2023/08/08 06:46:49;;;;;;;29.05;26.00;;;19.10;1.00;;;;;;4964239;28;20038;-64
2023/08/08 06:49:15;;;;;;;28.88;26.00;;;19.00;1.00;;;;;;4962811;28;20082;-64
2023/08/08 06:51:40;;;;;;;28.30;25.48;;;19.00;1.00;;;;;;4976204;28;20050;-64
2023/08/08 06:54:07;;;;;;;27.88;25.33;;;19.00;1.00;;;;;;4961531;28;20051;-64
2023/08/08 06:56:33;;;;;;;29.70;26.65;;;18.90;1.00;;;;;;4963982;28;20050;-65
2023/08/08 06:58:58;;;;;;;31.80;26.30;;;18.90;1.00;;;;;;4960631;28;20481;-66
2023/08/08 07:01:24;;;;;;;29.92;27.00;;;19.20;1.00;;;;;;4959852;28;20054;-65
2023/08/08 07:03:50;;;;;;;28.30;24.58;;;19.30;1.00;;;;;;4968559;28;20039;-65
2023/08/08 07:06:17;;;;;;;27.63;24.80;;;19.30;1.00;;;;;;4965892;28;20485;-65
2023/08/08 07:08:43;;;;;;;30.88;24.60;;;19.30;1.00;;;;;;4960915;28;20042;-66
2023/08/08 07:11:09;;;;;;;28.30;25.30;;;19.40;99.90;;;;;;4969818;28;20504;-66
2023/08/08 07:13:34;;;;;;;28.42;25.52;;;19.40;99.90;;;;;;4967649;28;20114;-65
2023/08/08 07:16:00;;;;;;;27.42;24.58;;;19.40;99.90;;;;;;4964770;28;20051;-66
2023/08/08 07:18:26;;;;;;;27.65;24.70;;;19.50;99.90;;;;;;4967810;28;20437;-66
2023/08/08 07:20:51;;;;;;;30.35;27.08;;;19.50;99.90;;;;;;4968454;28;20026;-66
2023/08/08 07:23:17;;;;;;;29.48;26.67;;;19.40;99.90;;;;;;4974538;28;20130;-67
2023/08/08 07:25:43;;;;;;;42.08;31.73;;;19.30;99.90;;;;;;4962456;28;20456;-65
2023/08/08 07:28:08;;;;;;;34.95;30.73;;;19.40;1.00;;;;;;4963879;28;20034;-63
2023/08/08 07:30:35;;;;;;;33.80;30.35;;;19.30;1.00;;;;;;4960605;28;20073;-61
2023/08/08 07:33:00;;;;;;;34.95;30.58;;;19.20;86.90;;;;;;4964019;28;20133;-62
2023/08/08 07:35:27;;;;;;;32.70;29.25;;;19.30;99.90;;;;;;4961537;28;20122;-62
2023/08/08 07:37:52;;;;;;;30.85;27.90;;;19.30;99.90;;;;;;4963086;28;20054;-62
2023/08/08 07:40:20;;;;;;;32.13;28.77;;;19.30;99.90;;;;;;4961088;28;20058;-62
2023/08/08 07:42:47;;;;;;;34.80;29.67;;;19.20;57.90;;;;;;4966473;28;20046;-61
2023/08/08 07:45:13;;;;;;;31.38;28.13;;;19.20;99.70;;;;;;4964707;28;20616;-63
2023/08/08 07:47:38;;;;;;;30.10;27.02;;;19.20;91.10;;;;;;4961553;28;20122;-61
2023/08/08 07:50:06;;;;;;;32.72;29.50;;;19.20;23.10;;;;;;4968350;28;20118;-62
2023/08/08 07:52:32;;;;;;;33.45;29.45;;;19.30;13.40;;;;;;4966961;28;20042;-63
2023/08/08 07:54:57;;;;;;;33.28;29.92;;;19.10;69.30;;;;;;4962018;28;20421;-62
2023/08/08 07:57:26;;;;;;;32.63;29.08;;;18.90;99.90;;;;;;4961846;28;20057;-62
2023/08/08 07:59:51;;;;;;;30.30;27.30;;;19.10;99.90;;;;;;4966509;28;20110;-61
2023/08/08 08:02:17;;;;;;;31.02;27.70;;;19.20;99.90;;;;;;4957847;28;20170;-63
2023/08/08 08:04:42;;;;;;;30.17;27.42;;;19.40;99.90;;;;;;4965034;28;20039;-62
2023/08/08 08:07:08;;;;;;;29.23;26.33;;;19.50;68.30;;;;;;4962721;28;20031;-62
2023/08/08 08:09:34;;;;;;;29.50;26.70;;;19.50;28.60;;;;;;4964501;28;20054;-62
2023/08/08 08:11:59;;;;;;;32.38;28.98;;;19.50;1.00;;;;;;4968431;28;20050;-62
2023/08/08 08:14:25;;;;;;;34.55;30.58;;;19.40;1.00;;;;;;4968439;28;20493;-61
2023/08/08 08:16:51;;;;;;;35.47;31.67;;;19.40;1.00;;;;;;4968455;28;20668;-63
2023/08/08 08:19:16;;;;;;;39.95;34.45;;;19.00;99.90;;;;;;4965094;28;20051;-62
2023/08/08 08:21:43;;;;;;;36.88;33.08;;;18.70;99.90;;;;;;4961572;28;20095;-61
2023/08/08 08:24:08;;;;;;;37.15;31.42;;;18.80;24.30;;;;;;4959191;28;20134;-61
2023/08/08 08:26:34;;;;;;;38.67;34.08;;;18.70;99.90;;;;;;4968955;28;20562;-63
2023/08/08 08:28:59;;;;;;;37.38;33.35;;;18.80;99.90;;;;;;4966802;28;20480;-61
2023/08/08 08:31:25;;;;;;;32.72;29.48;;;19.00;99.90;;;;;;4967345;28;20042;-62
2023/08/08 08:33:51;;;;;;;33.90;30.13;;;19.50;99.90;;;;;;4972349;28;20471;-62
2023/08/08 08:36:16;;;;;;;29.50;26.58;;;19.80;9.90;;;;;;4963748;28;20042;-62
2023/08/08 08:38:42;;;;;;;30.75;27.75;;;19.70;99.90;;;;;;4967249;28;20130;-62
2023/08/08 08:41:12;;;;;;;33.63;28.85;;;19.90;99.90;;;;;;4970886;28;20051;-60
2023/08/08 08:43:38;;;;;;;31.73;28.35;;;20.20;99.90;;;;;;4965753;28;20071;-60
2023/08/08 08:46:04;;;;;;;29.83;26.92;;;20.10;1.00;;;;;;4968712;28;20062;-59
2023/08/08 08:48:31;;;;;;;32.97;29.48;;;19.90;99.90;;;;;;4970187;28;20412;-59
2023/08/08 08:50:57;;;;;;;29.85;26.77;;;19.70;99.90;;;;;;4969804;28;20046;-60
2023/08/08 08:53:23;;;;;;;32.60;28.63;;;19.90;99.90;;;;;;4965461;28;20043;-63
2023/08/08 08:55:50;;;;;;;29.17;26.17;;;20.00;99.90;;;;;;4967415;28;20042;-62
2023/08/08 08:58:18;;;;;;;30.80;27.20;;;19.90;99.90;;;;;;4967685;28;20053;-63
2023/08/08 09:00:46;;;;;;;30.30;27.20;;;19.90;57.60;;;;;;4971615;28;20051;-62
2023/08/08 09:03:13;;;;;;;26.83;23.92;;;20.20;99.90;;;;;;4966158;28;20046;-62
2023/08/08 09:05:41;;;;;;;27.13;24.48;;;20.20;1.00;;;;;;4968253;28;20053;-62
2023/08/08 09:08:08;;;;;;;29.25;26.25;;;20.30;99.90;;;;;;4968644;28;20401;-62
2023/08/08 09:10:34;;;;;;;28.92;25.95;;;20.20;99.90;;;;;;4967548;28;20043;-62
2023/08/08 09:13:00;;;;;;;32.85;28.27;;;19.90;99.90;;;;;;4972410;28;20047;-62
2023/08/08 09:15:33;;;;;;;30.83;27.77;;;19.90;99.90;;;;;;4968136;28;20039;-62
2023/08/08 09:17:59;;;;;;;30.48;27.35;;;19.70;99.90;;;;;;4971191;28;20125;-62
2023/08/08 09:20:28;;;;;;;33.17;27.10;;;19.90;99.90;;;;;;4966112;28;20470;-63
2023/08/08 09:22:54;;;;;;;27.85;25.38;;;19.90;99.90;;;;;;4969893;28;20034;-63
2023/08/08 09:25:20;;;;;;;26.45;24.13;;;20.30;99.90;;;;;;4967877;28;20397;-61
2023/08/08 09:27:45;;;;;;;30.48;27.13;;;20.50;99.90;;;;;;4958150;28;20082;-64
2023/08/08 09:30:11;;;;;;;31.83;28.20;;;20.30;99.90;;;;;;4962286;28;20081;-61
2023/08/08 09:32:37;;;;;;;30.05;27.02;;;20.10;99.90;;;;;;4966143;28;20118;-62
2023/08/08 09:35:03;;;;;;;28.02;25.17;;;20.10;78.00;;;;;;4962990;28;20133;-64
2023/08/08 09:37:29;;;;;;;35.25;27.13;;;20.20;1.40;;;;;;4963224;28;20094;-61
2023/08/08 09:40:03;;;;;;;28.63;25.90;;;20.20;1.00;;;;;;4962051;28;20557;-63
2023/08/08 09:42:29;;;;;;;28.33;25.45;;;20.50;1.00;;;;;;4971276;28;20050;-62
2023/08/08 09:44:59;;;;;;;25.23;22.88;;;20.60;1.00;;;;;;4966995;28;20050;-63
2023/08/08 09:47:30;;;;;;;25.42;23.15;;;20.60;1.00;;;;;;4970815;28;20089;-62
2023/08/08 09:49:59;;;;;;;26.05;23.65;;;20.40;1.00;;;;;;4964640;28;20105;-62
2023/08/08 09:52:27;;;;;;;26.33;23.98;;;20.40;1.00;;;;;;4963740;28;20050;-63
2023/08/08 09:54:53;;;;;;;24.95;22.70;;;20.40;1.00;;;;;;4962275;28;20043;-66
2023/08/08 09:57:20;;;;;;;22.33;20.08;;;20.40;1.00;;;;;;4963057;28;20039;-66
2023/08/08 09:59:47;;;;;;;24.83;22.58;;;20.30;1.00;;;;;;4962053;28;20575;-66
2023/08/08 10:02:15;;;;;;;26.00;23.50;;;20.20;1.00;;;;;;4961150;28;20066;-66
2023/08/08 10:04:41;;;;;;;26.15;23.60;;;20.10;1.00;;;;;;4966978;28;20042;-65
2023/08/08 10:07:07;;;;;;;24.08;21.83;;;20.10;1.00;;;;;;4972041;28;20035;-67
2023/08/08 10:09:33;;;;;;;24.77;22.45;;;20.30;1.00;;;;;;4970719;28;20130;-66
2023/08/08 10:12:00;;;;;;;25.30;22.73;;;20.10;1.00;;;;;;4970894;28;20055;-67
2023/08/08 10:14:31;;;;;;;22.30;20.25;;;20.30;1.00;;;;;;4961463;28;20039;-65
2023/08/08 10:16:57;;;;;;;20.90;18.75;;;20.50;1.00;;;;;;4965402;28;20097;-66
2023/08/08 10:19:23;;;;;;;18.80;16.95;;;20.70;1.00;;;;;;4962827;28;20050;-66
2023/08/08 10:21:59;;;;;;;18.58;16.80;;;20.50;1.00;;;;;;4966691;28;20043;-66
2023/08/08 10:24:24;;;;;;;22.33;20.27;;;20.40;99.90;;;;;;4960140;28;20046;-67
2023/08/08 10:26:57;;;;;;;18.95;17.08;;;20.30;1.00;;;;;;4964278;28;20039;-66
2023/08/08 10:29:25;;;;;;;18.80;16.70;;;20.30;99.90;;;;;;4969530;28;20039;-66
2023/08/08 10:32:03;;;;;;;17.45;15.95;;;20.50;99.90;;;;;;4966525;28;20047;-66
2023/08/08 10:34:46;;;;;;;18.02;16.08;;;20.40;99.90;;;;;;4965866;28;20097;-65
2023/08/08 10:37:15;;;;;;;19.45;17.05;;;20.40;99.90;;;;;;4964511;28;20089;-65
2023/08/08 10:39:54;;;;;;;17.77;14.43;;;20.40;99.90;;;;;;4963959;28;20049;-66
2023/08/08 10:42:22;;;;;;;16.20;12.77;;;20.50;99.90;;;;;;4966425;28;20466;-65
2023/08/08 10:45:00;;;;;;;12.30;11.13;;;20.40;99.90;;;;;;4967552;28;20082;-65
2023/08/08 10:47:36;;;;;;;11.13;9.60;;;20.60;99.90;;;;;;4970725;28;20043;-66
2023/08/08 10:50:06;;;;;;;9.43;8.55;;;20.70;99.90;;;;;;4966133;28;20131;-64
2023/08/08 10:52:35;;;;;;;17.70;14.13;;;20.50;99.90;;;;;;4965516;28;20051;-64
2023/08/08 10:55:02;;;;;;;12.93;10.20;;;20.70;99.90;;;;;;4984822;28;20074;-64
2023/08/08 10:57:28;;;;;;;13.02;7.45;;;20.80;99.90;;;;;;4967634;28;20398;-63
2023/08/08 10:59:54;;;;;;;8.18;5.60;;;20.70;99.90;;;;;;4964631;28;20094;-64
2023/08/08 11:02:21;;;;;;;13.55;7.20;;;20.40;99.90;;;;;;4963198;28;20051;-63
2023/08/08 11:04:47;;;;;;;10.18;8.55;;;20.40;99.90;;;;;;4964531;28;20869;-62
2023/08/08 11:07:15;;;;;;;10.35;9.02;;;20.30;99.90;;;;;;4967485;28;20101;-62
2023/08/08 11:09:40;;;;;;;12.38;5.72;;;20.30;99.90;;;;;;4964681;28;20061;-63
2023/08/08 11:12:14;;;;;;;13.55;7.82;;;20.40;99.90;;;;;;4965523;28;20803;-62
2023/08/08 11:14:39;;;;;;;16.02;7.60;;;20.70;99.90;;;;;;4964567;28;20042;-62
2023/08/08 11:17:05;;;;;;;11.32;4.72;;;21.20;99.90;;;;;;4964328;28;20046;-62
2023/08/08 11:19:31;;;;;;;8.93;4.28;;;21.00;99.90;;;;;;4964012;28;20054;-62
2023/08/08 11:21:57;;;;;;;10.52;5.10;;;20.90;99.90;;;;;;4961397;28;20047;-62
2023/08/08 11:24:22;;;;;;;10.15;5.63;;;20.90;99.90;;;;;;4963534;28;20097;-63
2023/08/08 11:26:49;;;;;;;13.43;8.15;;;20.80;99.90;;;;;;4965426;28;20031;-62
2023/08/08 11:29:14;;;;;;;8.75;6.97;;;20.50;99.90;;;;;;4967417;28;20046;-61
2023/08/08 11:31:41;;;;;;;15.40;10.25;;;20.80;99.90;;;;;;4963960;28;20504;-62
2023/08/08 11:34:09;;;;;;;9.63;6.32;;;20.70;99.90;;;;;;4966850;28;20047;-62
2023/08/08 11:36:36;;;;;;;10.73;5.35;;;20.30;99.90;;;;;;4969071;28;20082;-62
2023/08/08 11:39:10;;;;;;;13.13;11.80;;;20.00;99.90;;;;;;4964904;28;20080;-62
2023/08/08 11:41:37;;;;;;;14.18;6.60;;;20.00;99.90;;;;;;4964182;28;20071;-63
2023/08/08 11:44:08;;;;;;;13.00;7.20;;;20.20;99.90;;;;;;4963453;28;20858;-62
2023/08/08 11:46:33;;;;;;;10.13;7.68;;;20.00;99.90;;;;;;4963629;28;20053;-62
2023/08/08 11:49:06;;;;;;;13.38;9.05;;;19.80;99.90;;;;;;4957662;28;20405;-62
2023/08/08 11:51:33;;;;;;;14.00;9.15;;;19.70;99.90;;;;;;4959619;28;20499;-63
2023/08/08 11:54:00;;;;;;;12.07;8.73;;;20.00;99.90;;;;;;4959162;28;20039;-62
2023/08/08 11:56:26;;;;;;;18.48;7.78;;;20.20;99.90;;;;;;4959278;28;20055;-62
2023/08/08 11:58:52;;;;;;;10.95;6.15;;;19.80;99.90;;;;;;4967451;28;20053;-62
2023/08/08 12:01:25;;;;;;;11.00;5.05;;;19.80;99.90;;;;;;4966274;28;20077;-62
2023/08/08 12:03:51;;;;;;;12.45;7.30;;;19.80;99.90;;;;;;4963383;28;20047;-62
2023/08/08 12:06:18;;;;;;;9.85;5.82;;;19.90;99.90;;;;;;4963780;28;20043;-62
2023/08/08 12:08:44;;;;;;;10.48;5.82;;;20.00;99.90;;;;;;4960550;28;20043;-62
2023/08/08 12:11:11;;;;;;;8.82;5.30;;;20.30;99.90;;;;;;4965030;28;20047;-62
2023/08/08 12:13:39;;;;;;;8.90;5.90;;;20.30;99.90;;;;;;4960470;28;20561;-62
2023/08/08 12:16:06;;;;;;;12.07;5.70;;;20.60;99.90;;;;;;4967988;28;20453;-63
2023/08/08 12:18:32;;;;;;;13.43;5.63;;;20.50;99.90;;;;;;4964565;28;20043;-63
2023/08/08 12:20:58;;;;;;;11.00;4.47;;;20.50;99.90;;;;;;4963826;28;20054;-63
2023/08/08 12:23:25;;;;;;;12.18;5.25;;;20.50;99.90;;;;;;4962068;28;20043;-62
2023/08/08 12:25:51;;;;;;;9.27;5.70;;;20.50;99.90;;;;;;4969200;28;20405;-62
2023/08/08 12:28:17;;;;;;;10.60;4.13;;;20.50;99.90;;;;;;4965833;28;20094;-63